Nulato, Alaska
Current Conditions -  °F | °C
As of 1:53 PM on Monday 20 Oct 2014 (Local Time) from PAKV Reporting Station
Overcast Overcast  
Wind Chill: 25°   Ceiling: 3000
Heat Index: 34°   Visibility: 10mi
Dew Point: 22°   Wind: 13mph
Humidity: 61%   Direction: 40°NE
Pressure: 29.25"   Gusts: 24mph
Location:  64.72°N, 158.13°W
Report Text: PAKV 202153Z AUTO 04011G21KT 10SM OVC030 01/M06 A2925 RMK AO2 SLP909 T00111056 TSNO
Loading
Personal Weather Stations






























Interactive Weather Map New forecast layout! Learn more

10-Day Weather Forecast

Advertisements
Track Severe Weather on mobile